CheckWX is a tool to help pilots better visualize weather data.  It is not intended as a substitute for an official pre-flight weather briefing.

12:14:15 UTC

KRWF METAR
Redwood Falls Municipal Airport
Redwood Falls, Minnesota, USA
Current

21 mins ago

KRWF 201153Z AUTO 18006KT 10SM OVC035 22/20 A2989 RMK AO2 LTG DSNT SE AND S RAE07B23E35 SLP114 P0000 60000 T02170200 10217 20206 53002
Observed
Aug-20 @ 11:53 UTC
Wind
  • 180° at 6 KTS
Visibility
10 SM
Flight Rules
VFR
Cloud Levels
  • Overcast at 3,500' AGL
Temperature
22°C / 72°F
Dewpoint
20°C / 68°F
Humidity
88%
Altimeter
29.89" Hg
Pressure
1012.22 hPa
Current Rain
0.01"
Previous

38 mins ago

KRWF 201136Z AUTO 16008G19KT 10SM OVC035 22/21 A2988 RMK AO2 LTG DSNT E-S RAE07B23E35 P0000 T02170206
Observed
Aug-20 @ 11:36 UTC
Wind
  • 160° at 8 KTS
  • Gusting to 19 KTS
Visibility
10 SM
Flight Rules
VFR
Cloud Levels
  • Overcast at 3,500' AGL
Temperature
22°C / 72°F
Dewpoint
21°C / 70°F
Humidity
94%
Altimeter
29.88" Hg
Pressure
1011.82 hPa
Current Rain
0.01"
Previous

49 mins ago

KRWF 201125Z AUTO 16016KT 9SM VCTS -RA FEW007 OVC031 21/21 A2988 RMK AO2 LTG DSNT NE-S RAE07B23 P0000 T02110206
Observed
Aug-20 @ 11:25 UTC
Wind
  • 160° at 16 KTS
Visibility
9 SM
Flight Rules
VFR
Conditions
Area Thunderstorm, Light Rain
Cloud Levels
  • Few at 700' AGL
  • Overcast at 3,100' AGL
Temperature
21°C / 70°F
Dewpoint
21°C / 70°F
Humidity
100%
Altimeter
29.88" Hg
Pressure
1011.82 hPa
Current Rain
0.01"